Главная страница
METAR-TAF:

METAR-TAF

Аэропорты :

Джидда, Саудовская Аравия

Король Абдул-Азиз

широта: 21-42N, долгота: 039-11E, высота над уровнем моря: 15 м

Текущие метеонаблюдения

Эта сводка был подготовлена 29 минут назад, в 07:00 UTC
Ветер 8 Узел от северно-северо-западный
Температура 31°C
Влажность 66%
Давление 1008 hPa
Видимость 10 км и более
небольшая облачность на высоте 3000 фута

METAR: OEJN 230700Z 33008KT 9999 FEW030 31/24 Q1008 NOSIG

Время: 10:29 (07:29 UTC)

Прогноз

Эта сводка был подготовлена 2 часа и 29 минут назад, в 05:00 UTC
Прогноз действительный с 23-го 06 UTC до 24-го 12 UTC
Ветер 10 Узел от северо-западный с порывами до 20 Узел
Видимость: 8000 м

TAF: OEJN 230500Z 2306/2412 31010G20KT 8000 NSC

Метеонаблюдения и прогнозы для более 4000 аэропортов (сводки METAR и TAF).

Имеющиеся станции представлены на карте желтыми и красными точками.

Чтобы увидеть название станции, наведите на нее мышь.

Затем щелкните, чтобы увидеть метеонаблюдения и метеопрогнозы.

Управление картой: чтобы увеличить масштаб, щелкните зеленые кнопки с черным крестиком; чтобы уменьшить масштаб, щелкните зеленую кнопку с тире; для просмотра соседних карт щелкайте зеленые стрелки.


METAR-TAF: